createdAt,value
2022-09-06T00:00:27.911Z,100.00
2022-09-06T00:02:57.021Z,100.00
2022-09-06T00:05:25.686Z,100.00
2022-09-06T00:07:56.143Z,100.00
2022-09-06T00:10:24.633Z,100.00
2022-09-06T00:12:53.439Z,100.00
2022-09-06T00:15:22.518Z,100.00
2022-09-06T00:17:51.756Z,100.00
2022-09-06T00:20:20.718Z,100.00
2022-09-06T00:22:49.302Z,100.00
2022-09-06T00:25:19.363Z,100.00
2022-09-06T00:27:47.841Z,100.00
2022-09-06T00:30:16.773Z,100.00
2022-09-06T00:32:45.417Z,100.00
2022-09-06T00:35:13.985Z,100.00
2022-09-06T00:37:42.737Z,100.00
2022-09-06T00:40:11.831Z,100.00
2022-09-06T00:42:42.229Z,100.00
2022-09-06T00:45:13.328Z,100.00
2022-09-06T00:47:44.683Z,100.00
2022-09-06T00:50:17.021Z,100.00
2022-09-06T00:52:49.810Z,100.00
2022-09-06T00:55:19.586Z,100.00
2022-09-06T00:57:52.188Z,100.00
2022-09-06T01:00:22.054Z,100.00
2022-09-06T01:05:18.310Z,100.00
2022-09-06T01:08:09.015Z,100.00
2022-09-06T01:11:35.084Z,100.00
2022-09-06T01:14:22.917Z,100.00
2022-09-06T01:17:04.814Z,100.00
2022-09-06T01:20:10.773Z,100.00
2022-09-06T01:23:22.330Z,100.00
2022-09-06T01:26:12.338Z,100.00
2022-09-06T01:28:46.625Z,100.00
2022-09-06T01:31:30.580Z,100.00
2022-09-06T01:34:21.833Z,100.00
2022-09-06T01:37:09.962Z,100.00
2022-09-06T01:39:41.705Z,100.00
2022-09-06T01:42:14.928Z,100.00
2022-09-06T01:44:52.916Z,100.00
2022-09-06T01:47:39.927Z,100.00
2022-09-06T01:50:41.367Z,100.00
2022-09-06T01:53:35.478Z,100.00
2022-09-06T01:56:21.227Z,100.00
2022-09-06T01:59:13.600Z,100.00
2022-09-06T02:01:53.541Z,100.00
2022-09-06T02:04:29.969Z,100.00
2022-09-06T02:07:04.705Z,100.00
2022-09-06T02:09:41.129Z,100.00
2022-09-06T02:12:13.604Z,100.00
2022-09-06T02:14:51.526Z,100.00
2022-09-06T02:17:32.862Z,100.00
2022-09-06T02:20:09.331Z,100.00
2022-09-06T02:22:47.151Z,99.90
2022-09-06T02:25:25.907Z,99.78
2022-09-06T02:27:56.352Z,99.41
2022-09-06T02:30:25.416Z,99.22
2022-09-06T02:33:01.151Z,99.58
2022-09-06T02:35:30.379Z,99.69
2022-09-06T02:37:59.339Z,99.72
2022-09-06T02:40:28.113Z,99.64
2022-09-06T02:42:56.846Z,99.81
2022-09-06T02:45:25.542Z,99.62
2022-09-06T02:47:55.522Z,99.15
2022-09-06T02:50:23.998Z,98.79
2022-09-06T02:53:04.555Z,98.72
2022-09-06T02:55:34.173Z,98.53
2022-09-06T02:58:02.971Z,98.29
2022-09-06T03:00:32.498Z,98.32
2022-09-06T03:05:19.433Z,97.73
2022-09-06T03:07:48.253Z,97.55
2022-09-06T03:10:17.129Z,97.42
2022-09-06T03:12:46.599Z,97.39
2022-09-06T03:15:17.350Z,97.22
2022-09-06T03:17:46.394Z,97.35
2022-09-06T03:20:15.235Z,97.33
2022-09-06T03:22:45.141Z,97.40
2022-09-06T03:25:13.951Z,97.40
2022-09-06T03:27:42.622Z,97.21
2022-09-06T03:30:12.877Z,96.91
2022-09-06T03:32:41.611Z,96.67
2022-09-06T03:35:11.301Z,96.67
2022-09-06T03:37:39.930Z,96.44
2022-09-06T03:40:12.414Z,96.34
2022-09-06T03:42:41.152Z,96.30
2022-09-06T03:45:11.475Z,96.26
2022-09-06T03:47:40.327Z,96.20
2022-09-06T03:50:10.693Z,96.12
2022-09-06T03:52:39.299Z,96.16
2022-09-06T03:55:12.037Z,95.89
2022-09-06T03:57:40.665Z,96.12
2022-09-06T04:00:11.390Z,95.63
2022-09-06T04:02:40.044Z,95.41
2022-09-06T04:05:09.756Z,95.36
2022-09-06T04:07:38.766Z,95.21
2022-09-06T04:10:10.800Z,95.20
2022-09-06T04:12:39.481Z,95.27
2022-09-06T04:15:09.746Z,95.19
2022-09-06T04:17:38.360Z,95.29
2022-09-06T04:20:08.523Z,94.96
2022-09-06T04:22:39.901Z,95.13
2022-09-06T04:25:11.504Z,95.19
2022-09-06T04:27:40.154Z,94.96
2022-09-06T04:30:10.959Z,95.04
2022-09-06T04:32:39.549Z,94.99
2022-09-06T04:35:10.313Z,94.79
2022-09-06T04:37:38.970Z,94.51
2022-09-06T04:40:10.679Z,94.52
2022-09-06T04:42:39.533Z,94.55
2022-09-06T04:45:09.764Z,94.49
2022-09-06T04:47:38.379Z,94.52
2022-09-06T04:50:07.940Z,93.71
2022-09-06T04:52:36.476Z,93.64
2022-09-06T04:55:05.822Z,93.37
2022-09-06T04:57:35.959Z,93.02
2022-09-06T05:00:05.340Z,92.50
2022-09-06T05:05:20.045Z,91.95
2022-09-06T05:07:48.614Z,91.64
2022-09-06T05:10:17.436Z,91.15
2022-09-06T05:12:49.759Z,90.65
2022-09-06T05:15:18.664Z,90.10
2022-09-06T05:17:47.560Z,89.84
2022-09-06T05:20:16.661Z,89.38
2022-09-06T05:22:54.791Z,89.03
2022-09-06T05:25:23.942Z,88.29
2022-09-06T05:27:52.619Z,87.83
2022-09-06T05:30:21.535Z,87.54
2022-09-06T05:32:55.197Z,86.98
2022-09-06T05:35:23.796Z,86.59
2022-09-06T05:37:54.496Z,85.85
2022-09-06T05:40:23.143Z,85.09
2022-09-06T05:42:51.939Z,84.00
2022-09-06T05:45:20.853Z,83.51
2022-09-06T05:47:53.730Z,82.71
2022-09-06T05:50:22.279Z,82.47
2022-09-06T05:52:54.470Z,81.78
2022-09-06T05:55:23.424Z,81.32
2022-09-06T05:57:53.173Z,80.81
2022-09-06T06:00:22.261Z,80.56
2022-09-06T06:02:51.470Z,79.79
2022-09-06T06:05:20.342Z,79.49
2022-09-06T06:07:49.341Z,79.07
2022-09-06T06:10:19.561Z,78.79
2022-09-06T06:12:48.241Z,78.65
2022-09-06T06:15:17.023Z,78.36
2022-09-06T06:17:45.612Z,78.26
2022-09-06T06:20:14.425Z,78.19
2022-09-06T06:22:43.287Z,77.89
2022-09-06T06:25:12.905Z,77.50
2022-09-06T06:27:43.157Z,77.03
2022-09-06T06:30:17.788Z,77.15
2022-09-06T06:32:47.380Z,76.76
2022-09-06T06:35:16.226Z,76.68
2022-09-06T06:37:45.966Z,76.63
2022-09-06T06:40:14.824Z,76.22
2022-09-06T06:42:44.778Z,75.82
2022-09-06T06:45:13.411Z,75.42
2022-09-06T06:47:42.054Z,75.01
2022-09-06T06:50:11.718Z,74.59
2022-09-06T06:52:40.928Z,74.57
2022-09-06T06:55:13.368Z,74.09
2022-09-06T06:57:43.526Z,73.99
2022-09-06T07:00:13.973Z,73.89
2022-09-06T07:08:15.459Z,70.27
2022-09-06T07:10:44.510Z,69.41
2022-09-06T07:13:14.071Z,66.43
2022-09-06T07:15:42.867Z,62.70
2022-09-06T07:18:12.783Z,61.54
2022-09-06T07:26:24.512Z,60.32
2022-09-06T07:28:55.020Z,61.23
2022-09-06T07:34:13.289Z,63.71
2022-09-06T07:36:43.387Z,64.31
2022-09-06T07:39:14.971Z,64.45
2022-09-06T07:41:44.767Z,63.76
2022-09-06T07:44:13.333Z,61.71
2022-09-06T07:46:42.399Z,61.34
2022-09-06T07:49:11.430Z,60.62
2022-09-06T07:51:40.139Z,59.41
2022-09-06T07:54:30.130Z,57.44
2022-09-06T07:56:59.509Z,56.48
2022-09-06T07:59:28.497Z,55.38
2022-09-06T08:01:57.149Z,54.87
2022-09-06T08:04:25.918Z,54.91
2022-09-06T08:09:44.613Z,53.98
2022-09-06T08:12:13.289Z,54.58
2022-09-06T08:14:41.975Z,54.84
2022-09-06T08:17:10.588Z,54.50
2022-09-06T08:19:39.247Z,54.25
2022-09-06T08:22:08.443Z,53.16
2022-09-06T08:24:37.111Z,51.10
2022-09-06T08:27:08.356Z,50.97
2022-09-06T08:29:38.257Z,52.20
2022-09-06T08:32:08.299Z,51.73
2022-09-06T08:34:37.137Z,51.93
2022-09-06T08:37:05.671Z,52.04
2022-09-06T08:39:34.340Z,50.26
2022-09-06T08:42:08.378Z,49.05
2022-09-06T08:47:25.714Z,49.81
2022-09-06T08:50:01.519Z,49.69
2022-09-06T08:53:13.260Z,48.61
2022-09-06T08:55:44.463Z,48.61
2022-09-06T08:58:46.933Z,47.48
2022-09-06T09:01:23.386Z,46.01
2022-09-06T09:05:36.393Z,45.48
2022-09-06T09:08:17.872Z,44.49
2022-09-06T09:10:51.439Z,45.00
2022-09-06T09:13:32.212Z,45.67
2022-09-06T09:16:01.115Z,44.71
2022-09-06T09:18:35.308Z,44.49
2022-09-06T09:21:11.602Z,44.33
2022-09-06T09:23:40.178Z,43.62
2022-09-06T09:26:15.450Z,43.19
2022-09-06T09:29:09.476Z,44.06
2022-09-06T09:31:41.673Z,42.95
2022-09-06T09:34:15.125Z,42.22
2022-09-06T09:39:39.476Z,41.42
2022-09-06T09:42:10.531Z,41.56
2022-09-06T09:44:45.901Z,42.33
2022-09-06T09:47:29.300Z,42.48
2022-09-06T09:49:58.760Z,42.88
2022-09-06T09:52:31.781Z,42.09
2022-09-06T09:55:05.337Z,40.82
2022-09-06T09:57:47.074Z,39.59
2022-09-06T10:00:33.330Z,39.71
2022-09-06T10:03:02.816Z,41.72
2022-09-06T10:05:31.622Z,42.11
2022-09-06T10:08:01.725Z,42.73
2022-09-06T10:10:36.737Z,42.11
2022-09-06T10:13:13.960Z,41.44
2022-09-06T10:15:43.995Z,40.58
2022-09-06T10:18:32.254Z,40.27
2022-09-06T10:21:04.429Z,40.71
2022-09-06T10:26:52.858Z,39.76
2022-09-06T10:29:34.285Z,39.00
2022-09-06T10:32:30.981Z,38.86
2022-09-06T10:35:14.338Z,38.46
2022-09-06T10:38:00.735Z,40.47
2022-09-06T10:40:35.756Z,40.11
2022-09-06T10:43:09.921Z,40.79
2022-09-06T10:45:55.065Z,42.25
2022-09-06T10:48:30.923Z,43.06
2022-09-06T10:51:07.793Z,43.66
2022-09-06T10:53:52.984Z,43.46
2022-09-06T10:56:31.412Z,43.51
2022-09-06T11:05:40.453Z,43.63
2022-09-06T11:11:15.521Z,42.70
2022-09-06T11:13:47.478Z,42.28
2022-09-06T11:16:27.587Z,41.88
2022-09-06T11:19:02.895Z,41.05
2022-09-06T11:22:09.946Z,39.63
2022-09-06T11:25:13.442Z,40.29
2022-09-06T11:27:46.857Z,40.67
2022-09-06T11:30:18.933Z,41.08
2022-09-06T11:32:54.770Z,39.88
2022-09-06T11:35:27.665Z,39.55
2022-09-06T11:38:05.399Z,39.78
2022-09-06T11:40:41.746Z,40.37
2022-09-06T11:43:18.828Z,40.51
2022-09-06T11:45:51.541Z,40.49
2022-09-06T11:49:03.685Z,39.96
2022-09-06T11:51:39.799Z,40.00
2022-09-06T11:54:28.790Z,40.31
2022-09-06T11:57:03.982Z,40.77
2022-09-06T11:59:43.421Z,41.72
2022-09-06T12:02:38.081Z,41.70
2022-09-06T12:05:25.738Z,41.53
2022-09-06T12:08:29.380Z,41.19
2022-09-06T12:11:06.812Z,42.00
2022-09-06T12:13:55.740Z,42.14
2022-09-06T12:16:25.765Z,41.48
2022-09-06T12:19:02.603Z,41.05
2022-09-06T12:21:46.173Z,41.20
2022-09-06T12:24:58.010Z,40.32
2022-09-06T12:27:33.285Z,39.59
2022-09-06T12:30:05.360Z,39.10
2022-09-06T12:32:39.540Z,39.17
2022-09-06T12:38:09.646Z,39.69
2022-09-06T12:40:45.518Z,39.44
2022-09-06T12:43:18.617Z,40.34
2022-09-06T12:45:50.810Z,40.90
2022-09-06T12:48:29.940Z,41.34
2022-09-06T12:51:07.463Z,41.70
2022-09-06T12:53:37.068Z,41.84
2022-09-06T12:56:08.697Z,42.13
2022-09-06T12:58:38.974Z,42.18
2022-09-06T13:01:16.982Z,42.36
2022-09-06T13:05:18.683Z,42.31
2022-09-06T13:07:53.937Z,41.86
2022-09-06T13:10:27.362Z,41.97
2022-09-06T13:12:59.788Z,42.49
2022-09-06T13:15:31.912Z,42.25
2022-09-06T13:18:24.066Z,42.31
2022-09-06T13:21:07.480Z,41.16
2022-09-06T13:23:48.136Z,40.60
2022-09-06T13:26:34.051Z,40.31
2022-09-06T13:29:13.325Z,40.24
2022-09-06T13:31:47.590Z,39.83
2022-09-06T13:34:23.771Z,39.96
2022-09-06T13:36:56.652Z,39.76
2022-09-06T13:39:34.188Z,39.76
2022-09-06T13:42:07.607Z,39.54
2022-09-06T13:44:38.869Z,39.01
2022-09-06T13:47:07.774Z,38.62
2022-09-06T13:49:36.657Z,40.05
2022-09-06T13:52:08.222Z,40.89
2022-09-06T13:54:37.614Z,40.87
2022-09-06T13:57:06.207Z,41.03
2022-09-06T13:59:35.527Z,40.60
2022-09-06T14:02:10.014Z,39.76
2022-09-06T14:04:39.172Z,39.45
2022-09-06T14:07:09.655Z,39.32
2022-09-06T14:09:38.534Z,39.87
2022-09-06T14:12:10.380Z,40.88
2022-09-06T14:14:39.332Z,41.17
2022-09-06T14:17:08.294Z,41.83
2022-09-06T14:19:37.372Z,42.13
2022-09-06T14:22:07.100Z,42.87
2022-09-06T14:24:39.645Z,43.99
2022-09-06T14:27:08.714Z,43.47
2022-09-06T14:29:37.388Z,43.88
2022-09-06T14:32:06.197Z,43.27
2022-09-06T14:34:34.839Z,43.01
2022-09-06T14:37:03.861Z,41.97
2022-09-06T14:39:32.658Z,41.99
2022-09-06T14:42:02.646Z,42.37
2022-09-06T14:44:31.517Z,42.71
2022-09-06T14:47:00.308Z,42.68
2022-09-06T14:49:28.932Z,42.79
2022-09-06T14:51:57.468Z,43.18
2022-09-06T14:54:29.238Z,43.06
2022-09-06T14:56:58.223Z,42.33
2022-09-06T14:59:28.783Z,42.51
2022-09-06T15:05:20.899Z,42.04
2022-09-06T15:07:49.844Z,42.27
2022-09-06T15:10:20.262Z,42.61
2022-09-06T15:12:48.822Z,42.59
2022-09-06T15:15:17.547Z,41.52
2022-09-06T15:17:46.946Z,40.78
2022-09-06T15:20:17.203Z,40.67
2022-09-06T15:22:47.135Z,41.21
2022-09-06T15:25:15.920Z,41.32
2022-09-06T15:27:44.542Z,41.23
2022-09-06T15:30:15.320Z,40.71
2022-09-06T15:32:44.904Z,40.88
2022-09-06T15:35:13.459Z,40.55
2022-09-06T15:37:41.969Z,39.85
2022-09-06T15:40:15.890Z,39.59
2022-09-06T15:42:45.252Z,40.13
2022-09-06T15:45:13.809Z,41.23
2022-09-06T15:47:43.277Z,42.76
2022-09-06T15:50:11.829Z,43.77
2022-09-06T15:52:40.550Z,44.80
2022-09-06T15:55:28.898Z,46.19
2022-09-06T15:57:57.565Z,46.24
2022-09-06T16:00:26.615Z,46.49
2022-09-06T16:02:57.298Z,46.79
2022-09-06T16:08:14.906Z,47.51
2022-09-06T16:10:45.167Z,48.05
2022-09-06T16:13:13.970Z,48.80
2022-09-06T16:15:42.784Z,49.46
2022-09-06T16:18:12.136Z,50.04
2022-09-06T16:20:40.835Z,50.52
2022-09-06T16:23:09.527Z,50.65
2022-09-06T16:25:37.989Z,51.25
2022-09-06T16:28:08.027Z,51.89
2022-09-06T16:30:36.618Z,51.84
2022-09-06T16:33:05.437Z,52.31
2022-09-06T16:35:34.223Z,52.31
2022-09-06T16:38:06.043Z,52.45
2022-09-06T16:40:36.560Z,52.78
2022-09-06T16:43:07.088Z,53.22
2022-09-06T16:45:35.723Z,53.23
2022-09-06T16:48:04.664Z,53.35
2022-09-06T16:50:33.283Z,53.43
2022-09-06T16:53:01.922Z,53.61
2022-09-06T16:55:30.423Z,53.62
2022-09-06T16:58:01.015Z,53.54
2022-09-06T17:00:31.308Z,53.37
2022-09-06T17:05:19.975Z,53.23
2022-09-06T17:07:48.494Z,53.50
2022-09-06T17:10:19.009Z,53.89
2022-09-06T17:12:47.590Z,53.85
2022-09-06T17:15:16.276Z,54.17
2022-09-06T17:17:43.941Z,54.21
2022-09-06T17:20:12.831Z,54.43
2022-09-06T17:22:42.650Z,54.79
2022-09-06T17:25:14.008Z,55.14
2022-09-06T17:27:42.660Z,55.48
2022-09-06T17:30:12.892Z,56.06
2022-09-06T17:32:41.597Z,56.36
2022-09-06T17:35:10.850Z,56.77
2022-09-06T17:37:39.399Z,57.22
2022-09-06T17:40:11.924Z,57.83
2022-09-06T17:42:40.498Z,57.99
2022-09-06T17:45:10.522Z,58.67
2022-09-06T17:47:39.157Z,59.52
2022-09-06T17:50:08.948Z,59.91
2022-09-06T17:52:37.844Z,60.49
2022-09-06T17:55:08.734Z,61.11
2022-09-06T17:57:37.377Z,61.46
2022-09-06T18:00:07.563Z,61.90
2022-09-06T18:02:36.510Z,62.17
2022-09-06T18:05:05.562Z,62.48
2022-09-06T18:07:34.243Z,62.78
2022-09-06T18:10:02.854Z,62.92
2022-09-06T18:12:32.935Z,63.04
2022-09-06T18:15:02.461Z,63.08
2022-09-06T18:17:31.558Z,63.25
2022-09-06T18:20:00.353Z,62.98
2022-09-06T18:22:28.824Z,63.01
2022-09-06T18:24:58.455Z,63.03
2022-09-06T18:27:28.359Z,63.15
2022-09-06T18:29:58.310Z,63.49
2022-09-06T18:32:27.226Z,63.84
2022-09-06T18:34:55.934Z,64.05
2022-09-06T18:37:24.421Z,64.22
2022-09-06T18:39:53.179Z,64.20
2022-09-06T18:42:22.105Z,64.24
2022-09-06T18:44:51.356Z,64.63
2022-09-06T18:47:22.493Z,65.04
2022-09-06T18:49:51.076Z,65.42
2022-09-06T18:52:21.061Z,65.89
2022-09-06T18:54:53.056Z,66.19
2022-09-06T18:57:24.895Z,66.72
2022-09-06T19:00:31.776Z,66.52
2022-09-06T19:05:49.045Z,67.18
2022-09-06T19:08:18.955Z,67.45
2022-09-06T19:11:28.752Z,67.78
2022-09-06T19:16:54.604Z,68.20
2022-09-06T19:19:24.054Z,68.36
2022-09-06T19:21:57.183Z,68.37
2022-09-06T19:24:25.899Z,68.57
2022-09-06T19:26:55.303Z,68.83
2022-09-06T19:29:24.064Z,69.13
2022-09-06T19:31:53.106Z,69.56
2022-09-06T19:34:22.373Z,69.93
2022-09-06T19:36:55.238Z,70.38
2022-09-06T19:39:32.366Z,70.31
2022-09-06T19:42:03.455Z,70.48
2022-09-06T19:44:32.714Z,70.67
2022-09-06T19:47:01.389Z,71.05
2022-09-06T19:49:30.981Z,71.18
2022-09-06T19:51:59.595Z,71.21
2022-09-06T19:54:30.332Z,70.99
2022-09-06T19:56:58.862Z,71.00
2022-09-06T19:59:27.780Z,70.87
2022-09-06T20:01:56.567Z,71.13
2022-09-06T20:04:27.217Z,71.06
2022-09-06T20:06:56.087Z,70.78
2022-09-06T20:09:24.862Z,70.65
2022-09-06T20:11:54.786Z,70.59
2022-09-06T20:14:24.628Z,70.57
2022-09-06T20:16:53.331Z,71.04
2022-09-06T20:19:22.437Z,71.33
2022-09-06T20:21:51.030Z,71.26
2022-09-06T20:24:20.060Z,71.46
2022-09-06T20:26:48.570Z,71.78
2022-09-06T20:29:19.105Z,72.32
2022-09-06T20:31:48.010Z,72.66
2022-09-06T20:34:19.093Z,72.77
2022-09-06T20:36:47.820Z,73.26
2022-09-06T20:39:16.627Z,73.39
2022-09-06T20:41:45.825Z,73.58
2022-09-06T20:44:14.643Z,73.91
2022-09-06T20:46:44.653Z,73.88
2022-09-06T20:49:15.163Z,74.04
2022-09-06T20:51:44.098Z,74.20
2022-09-06T20:54:14.084Z,74.54
2022-09-06T20:56:43.504Z,74.93
2022-09-06T20:59:14.896Z,75.16
2022-09-06T21:05:20.890Z,75.95
2022-09-06T21:07:49.469Z,76.16
2022-09-06T21:10:18.341Z,76.60
2022-09-06T21:12:46.910Z,76.83
2022-09-06T21:15:15.759Z,77.16
2022-09-06T21:17:44.717Z,77.52
2022-09-06T21:20:13.798Z,77.60
2022-09-06T21:22:43.698Z,77.83
2022-09-06T21:25:12.378Z,78.02
2022-09-06T21:27:40.833Z,78.23
2022-09-06T21:30:11.654Z,78.58
2022-09-06T21:32:40.213Z,79.26
2022-09-06T21:35:09.833Z,79.70
2022-09-06T21:37:38.404Z,80.08
2022-09-06T21:40:10.535Z,80.68
2022-09-06T21:42:39.089Z,80.76
2022-09-06T21:45:09.029Z,81.07
2022-09-06T21:47:38.407Z,81.26
2022-09-06T21:50:07.602Z,81.39
2022-09-06T21:52:36.233Z,81.63
2022-09-06T21:55:06.201Z,81.75
2022-09-06T21:57:36.363Z,82.07
2022-09-06T22:00:07.207Z,82.09
2022-09-06T22:02:36.606Z,81.88
2022-09-06T22:05:06.735Z,81.66
2022-09-06T22:07:37.771Z,81.50
2022-09-06T22:10:07.366Z,81.66
2022-09-06T22:12:37.282Z,81.77
2022-09-06T22:15:06.903Z,81.66
2022-09-06T22:17:35.450Z,81.71
2022-09-06T22:20:04.982Z,81.88
2022-09-06T22:22:33.676Z,82.16
2022-09-06T22:25:02.215Z,82.28
2022-09-06T22:27:31.090Z,82.31
2022-09-06T22:30:01.126Z,82.47
2022-09-06T22:32:29.595Z,82.76
2022-09-06T22:34:58.616Z,82.82
2022-09-06T22:37:27.230Z,83.03
2022-09-06T22:39:56.098Z,83.23
2022-09-06T22:42:24.883Z,83.77
2022-09-06T22:44:54.186Z,84.16
2022-09-06T22:47:24.072Z,84.46
2022-09-06T22:49:53.223Z,84.81
2022-09-06T22:52:21.861Z,84.95
2022-09-06T22:54:50.436Z,85.38
2022-09-06T22:57:18.972Z,85.69
2022-09-06T22:59:47.775Z,86.28
2022-09-06T23:05:18.867Z,87.04
2022-09-06T23:07:47.399Z,87.42
2022-09-06T23:10:16.101Z,87.70
2022-09-06T23:12:44.774Z,88.24
2022-09-06T23:15:13.348Z,88.58
2022-09-06T23:17:41.890Z,88.90
2022-09-06T23:20:11.035Z,88.76
2022-09-06T23:22:41.013Z,88.67
2022-09-06T23:25:10.913Z,88.77
2022-09-06T23:27:39.472Z,88.82
2022-09-06T23:30:11.258Z,88.85
2022-09-06T23:32:40.099Z,88.86
2022-09-06T23:35:09.747Z,88.71
2022-09-06T23:37:38.241Z,88.75
2022-09-06T23:40:10.472Z,88.82
2022-09-06T23:42:39.041Z,88.85
2022-09-06T23:45:08.935Z,89.20
2022-09-06T23:47:38.146Z,89.47
2022-09-06T23:50:07.979Z,89.66
2022-09-06T23:52:36.582Z,89.85
2022-09-06T23:55:05.748Z,90.13
2022-09-06T23:57:35.624Z,90.39
